Time;durP1;ratioP1;P1;durP2;ratioP2;P2;SDS_P1;SDS_P2;PMS_P1;PMS_P2;Temp;Humidity;BMP_temperature;BMP_pressure;BME280_temperature;BME280_humidity;BME280_pressure;Samples;Min_cycle;Max_cycle;Signal;HPM_P1;HPM_P2
2021/08/11 00:00:12;;;;;;;25.05;9.55;;;;;;;;;;5055395;28;20024;-75
2021/08/11 00:02:37;;;;;;;27.85;9.65;;;;;;;;;;5055429;28;20455;-75
2021/08/11 00:05:02;;;;;;;29.85;10.73;;;;;;;;;;5055064;28;20120;-75
2021/08/11 00:07:28;;;;;;;28.48;10.55;;;;;;;;;;5055600;28;20057;-75
2021/08/11 00:09:53;;;;;;;22.38;9.63;;;;;;;;;;5055533;28;20025;-75
2021/08/11 00:12:19;;;;;;;25.02;10.45;;;;;;;;;;5055499;28;20040;-75
2021/08/11 00:14:44;;;;;;;24.70;11.35;;;;;;;;;;5055128;28;20074;-75
2021/08/11 00:17:09;;;;;;;29.35;10.63;;;;;;;;;;5055344;28;20021;-75
2021/08/11 00:19:34;;;;;;;29.45;10.63;;;;;;;;;;5055685;28;20511;-75
2021/08/11 00:22:00;;;;;;;25.15;9.27;;;;;;;;;;5055256;28;20029;-76
2021/08/11 00:24:25;;;;;;;22.95;10.45;;;;;;;;;;5054962;28;20021;-75
2021/08/11 00:26:50;;;;;;;27.73;10.52;;;;;;;;;;5055051;28;20043;-75
2021/08/11 00:29:16;;;;;;;25.42;9.55;;;;;;;;;;5055149;28;20361;-75
2021/08/11 00:31:41;;;;;;;31.95;10.88;;;;;;;;;;5055261;28;20119;-75
2021/08/11 00:34:06;;;;;;;30.80;10.95;;;;;;;;;;5054989;28;20029;-75
2021/08/11 00:36:31;;;;;;;43.28;11.90;;;;;;;;;;5055177;28;20043;-75
2021/08/11 00:38:57;;;;;;;35.45;10.07;;;;;;;;;;5054784;28;20032;-75
2021/08/11 00:41:22;;;;;;;30.70;10.40;;;;;;;;;;5054942;28;20136;-75
2021/08/11 00:43:47;;;;;;;23.48;8.77;;;;;;;;;;5050365;28;20025;-75
2021/08/11 00:46:13;;;;;;;30.42;9.38;;;;;;;;;;5053190;28;20041;-75
2021/08/11 00:48:38;;;;;;;37.78;10.55;;;;;;;;;;5054197;28;20031;-75
2021/08/11 00:51:04;;;;;;;28.88;9.93;;;;;;;;;;5054086;28;20024;-75
2021/08/11 00:53:31;;;;;;;26.63;9.70;;;;;;;;;;5054267;28;20028;-75
2021/08/11 00:55:58;;;;;;;23.10;9.55;;;;;;;;;;5053550;28;20122;-75
2021/08/11 00:58:23;;;;;;;26.35;10.07;;;;;;;;;;5054286;28;20055;-75
2021/08/11 01:00:50;;;;;;;31.48;10.90;;;;;;;;;;5054569;28;20029;-75
2021/08/11 01:03:19;;;;;;;25.98;10.30;;;;;;;;;;5054316;28;20033;-75
2021/08/11 01:05:45;;;;;;;37.10;11.07;;;;;;;;;;5054538;28;20028;-75
2021/08/11 01:08:11;;;;;;;34.08;11.10;;;;;;;;;;5053793;28;20107;-75
2021/08/11 01:10:37;;;;;;;38.30;11.35;;;;;;;;;;5053545;28;20112;-75
2021/08/11 01:13:02;;;;;;;28.73;10.20;;;;;;;;;;5036533;28;20116;-75
2021/08/11 01:15:28;;;;;;;26.88;9.60;;;;;;;;;;5054356;28;20033;-75
2021/08/11 01:17:53;;;;;;;36.42;10.85;;;;;;;;;;5054027;28;20037;-75
2021/08/11 01:20:18;;;;;;;39.15;11.60;;;;;;;;;;5053443;28;20039;-75
2021/08/11 01:22:47;;;;;;;33.15;8.98;;;;;;;;;;5053835;28;20383;-75
2021/08/11 01:25:34;;;;;;;25.63;9.65;;;;;;;;;;5054006;28;20108;-75
2021/08/11 01:28:17;;;;;;;23.92;8.93;;;;;;;;;;5052865;28;20062;-76
2021/08/11 01:30:59;;;;;;;30.67;10.00;;;;;;;;;;5049452;28;20045;-75
2021/08/11 01:33:30;;;;;;;38.28;10.88;;;;;;;;;;5051870;28;20535;-75
2021/08/11 01:36:01;;;;;;;32.97;10.52;;;;;;;;;;5053488;28;20031;-75
2021/08/11 01:38:29;;;;;;;26.25;9.82;;;;;;;;;;5053746;28;20025;-75
2021/08/11 01:40:55;;;;;;;27.73;9.80;;;;;;;;;;5053737;28;20106;-75
2021/08/11 01:43:22;;;;;;;24.38;9.30;;;;;;;;;;5053601;28;20017;-76
2021/08/11 01:45:49;;;;;;;27.25;9.68;;;;;;;;;;5053657;28;20032;-75
2021/08/11 01:48:15;;;;;;;28.38;9.52;;;;;;;;;;5053245;28;20082;-75
2021/08/11 01:50:41;;;;;;;25.63;9.48;;;;;;;;;;5053096;28;20031;-75
2021/08/11 01:53:09;;;;;;;29.95;9.95;;;;;;;;;;5053358;28;20025;-75
2021/08/11 01:55:35;;;;;;;27.58;9.43;;;;;;;;;;5052954;28;20067;-75
2021/08/11 01:58:01;;;;;;;28.13;9.27;;;;;;;;;;5053266;28;20080;-76
2021/08/11 02:00:26;;;;;;;35.88;10.25;;;;;;;;;;5053006;28;20519;-75
2021/08/11 02:02:52;;;;;;;33.40;10.75;;;;;;;;;;5053513;28;20032;-75
2021/08/11 02:05:19;;;;;;;26.20;9.40;;;;;;;;;;5053451;28;20017;-75
2021/08/11 02:07:44;;;;;;;35.53;9.85;;;;;;;;;;5053461;28;20033;-75
2021/08/11 02:10:12;;;;;;;30.08;9.98;;;;;;;;;;5052964;28;20052;-75
2021/08/11 02:12:38;;;;;;;29.15;8.60;;;;;;;;;;5035614;28;20114;-75
2021/08/11 02:15:07;;;;;;;28.08;9.48;;;;;;;;;;5052600;28;20461;-75
2021/08/11 02:17:32;;;;;;;27.73;9.75;;;;;;;;;;5053134;28;20090;-75
2021/08/11 02:19:58;;;;;;;43.88;10.50;;;;;;;;;;5053351;28;20029;-75
2021/08/11 02:22:23;;;;;;;29.02;9.80;;;;;;;;;;5052954;28;20095;-75
2021/08/11 02:24:48;;;;;;;36.05;10.93;;;;;;;;;;5053396;28;20039;-75
2021/08/11 02:27:18;;;;;;;31.52;10.63;;;;;;;;;;5052819;28;20037;-75
2021/08/11 02:29:47;;;;;;;29.75;9.43;;;;;;;;;;5034576;28;20385;-75
2021/08/11 02:32:15;;;;;;;48.08;11.55;;;;;;;;;;5053190;28;20061;-75
2021/08/11 02:34:50;;;;;;;31.40;9.77;;;;;;;;;;5052782;28;20071;-75
2021/08/11 02:37:20;;;;;;;37.58;10.15;;;;;;;;;;5053052;28;20025;-75
2021/08/11 02:39:49;;;;;;;39.60;10.27;;;;;;;;;;5052730;28;20045;-75
2021/08/11 02:42:20;;;;;;;32.40;9.70;;;;;;;;;;5053072;28;20017;-75
2021/08/11 02:44:49;;;;;;;32.88;10.25;;;;;;;;;;5052813;28;20065;-76
2021/08/11 02:47:14;;;;;;;25.08;9.95;;;;;;;;;;5052890;28;20036;-76
2021/08/11 02:49:40;;;;;;;30.83;9.73;;;;;;;;;;5052507;28;20040;-76
2021/08/11 02:52:05;;;;;;;28.80;9.55;;;;;;;;;;5052336;28;20032;-76
2021/08/11 02:54:31;;;;;;;48.13;11.25;;;;;;;;;;5052581;28;20067;-75
2021/08/11 02:56:58;;;;;;;31.80;9.75;;;;;;;;;;5052995;28;20040;-75
2021/08/11 02:59:24;;;;;;;40.60;10.75;;;;;;;;;;5052697;28;20029;-75
2021/08/11 03:01:50;;;;;;;29.20;10.00;;;;;;;;;;5052397;28;20040;-75
2021/08/11 03:04:15;;;;;;;31.38;9.88;;;;;;;;;;5052859;28;20032;-74
2021/08/11 03:06:40;;;;;;;31.42;9.93;;;;;;;;;;5052646;28;20080;-75
2021/08/11 03:09:07;;;;;;;36.35;11.02;;;;;;;;;;5052478;28;20029;-75
2021/08/11 03:11:33;;;;;;;30.90;9.88;;;;;;;;;;5052908;28;20017;-75
2021/08/11 03:13:59;;;;;;;35.15;9.93;;;;;;;;;;5052611;28;20040;-75
2021/08/11 03:16:24;;;;;;;37.67;10.65;;;;;;;;;;5052804;28;20477;-75
2021/08/11 03:18:49;;;;;;;39.50;10.10;;;;;;;;;;5051921;28;20017;-76
2021/08/11 03:21:15;;;;;;;27.65;9.25;;;;;;;;;;5052715;28;20021;-75
2021/08/11 03:23:40;;;;;;;37.45;10.52;;;;;;;;;;5051984;28;20037;-75
2021/08/11 03:26:06;;;;;;;24.30;8.43;;;;;;;;;;5052278;28;20029;-75
2021/08/11 03:28:31;;;;;;;47.05;9.98;;;;;;;;;;5052430;28;20412;-75
2021/08/11 03:30:56;;;;;;;29.83;9.52;;;;;;;;;;5051785;28;20045;-75
2021/08/11 03:33:21;;;;;;;24.38;8.65;;;;;;;;;;5052503;28;20146;-75
2021/08/11 03:35:47;;;;;;;31.02;9.73;;;;;;;;;;5056588;28;20029;-75
2021/08/11 03:38:12;;;;;;;22.83;10.27;;;;;;;;;;5055815;28;20037;-75
2021/08/11 03:40:37;;;;;;;31.17;11.13;;;;;;;;;;5056263;28;20021;-75
2021/08/11 03:43:03;;;;;;;28.40;9.95;;;;;;;;;;5055811;28;20036;-76
2021/08/11 03:45:28;;;;;;;30.42;10.93;;;;;;;;;;5055823;28;20029;-75
2021/08/11 03:47:55;;;;;;;30.30;10.45;;;;;;;;;;5055222;28;20029;-75
2021/08/11 03:50:21;;;;;;;31.77;9.70;;;;;;;;;;5055859;28;20112;-74
2021/08/11 03:52:47;;;;;;;42.55;11.98;;;;;;;;;;5055566;28;20037;-74
2021/08/11 03:55:13;;;;;;;29.75;10.00;;;;;;;;;;5055583;28;20025;-75
2021/08/11 03:57:38;;;;;;;28.45;10.75;;;;;;;;;;5055692;28;20059;-75
2021/08/11 04:00:04;;;;;;;38.05;10.75;;;;;;;;;;5055017;28;20056;-76
2021/08/11 04:02:29;;;;;;;28.70;10.40;;;;;;;;;;5055311;28;20029;-75
2021/08/11 04:04:55;;;;;;;26.30;10.02;;;;;;;;;;5055710;28;20033;-75
2021/08/11 04:07:20;;;;;;;23.58;9.80;;;;;;;;;;5055099;28;20052;-75
2021/08/11 04:09:45;;;;;;;31.80;10.27;;;;;;;;;;5055106;28;20496;-75
2021/08/11 04:12:10;;;;;;;29.13;10.60;;;;;;;;;;5055132;28;20075;-75
2021/08/11 04:14:37;;;;;;;45.17;10.38;;;;;;;;;;5055597;28;20036;-75
2021/08/11 04:17:02;;;;;;;20.40;8.80;;;;;;;;;;5055263;28;20028;-75
2021/08/11 04:19:28;;;;;;;27.88;10.13;;;;;;;;;;5054941;28;21732;-75
2021/08/11 04:21:53;;;;;;;29.65;9.95;;;;;;;;;;5054972;28;20193;-76
2021/08/11 04:24:18;;;;;;;40.22;10.43;;;;;;;;;;5055656;28;20050;-75
2021/08/11 04:26:43;;;;;;;27.92;9.45;;;;;;;;;;5055159;28;20041;-75
2021/08/11 04:29:09;;;;;;;21.15;8.70;;;;;;;;;;5055582;28;20029;-75
2021/08/11 04:31:34;;;;;;;33.33;10.38;;;;;;;;;;5054477;28;20559;-75
2021/08/11 04:33:59;;;;;;;33.72;10.45;;;;;;;;;;5055248;28;20109;-75
2021/08/11 04:36:24;;;;;;;37.97;10.43;;;;;;;;;;5054902;28;20086;-75
2021/08/11 04:38:50;;;;;;;28.80;9.77;;;;;;;;;;5054527;28;20107;-76
2021/08/11 04:41:16;;;;;;;30.65;9.38;;;;;;;;;;5054993;28;20029;-76
2021/08/11 04:43:41;;;;;;;33.45;9.63;;;;;;;;;;5054530;28;20505;-76
2021/08/11 04:46:07;;;;;;;23.17;9.20;;;;;;;;;;5053629;28;20029;-75
2021/08/11 04:48:32;;;;;;;24.38;9.23;;;;;;;;;;5054425;28;20074;-75
2021/08/11 04:50:57;;;;;;;24.10;9.18;;;;;;;;;;5054131;28;20492;-76
2021/08/11 04:53:23;;;;;;;31.50;9.77;;;;;;;;;;5036614;28;20171;-75
2021/08/11 04:55:49;;;;;;;26.58;9.65;;;;;;;;;;5054757;28;20029;-75
2021/08/11 04:58:14;;;;;;;23.85;8.40;;;;;;;;;;5054332;28;20033;-75
2021/08/11 05:00:39;;;;;;;22.83;9.05;;;;;;;;;;5054178;28;20051;-76
2021/08/11 05:03:05;;;;;;;34.67;9.35;;;;;;;;;;5054671;28;20454;-75
2021/08/11 05:05:30;;;;;;;34.50;9.25;;;;;;;;;;5054053;28;20151;-75
2021/08/11 05:07:55;;;;;;;19.52;7.55;;;;;;;;;;5054307;28;20067;-75
2021/08/11 05:10:21;;;;;;;31.98;9.90;;;;;;;;;;5053832;28;20052;-75
2021/08/11 05:12:46;;;;;;;28.83;9.95;;;;;;;;;;5054418;28;20035;-75
2021/08/11 05:15:11;;;;;;;25.88;9.50;;;;;;;;;;5054352;28;20029;-76
2021/08/11 05:17:37;;;;;;;35.10;10.45;;;;;;;;;;5053828;28;20139;-75
2021/08/11 05:20:03;;;;;;;23.45;8.88;;;;;;;;;;5053750;28;20509;-75
2021/08/11 05:22:28;;;;;;;32.17;9.63;;;;;;;;;;5054270;28;20452;-75
2021/08/11 05:24:53;;;;;;;25.98;8.43;;;;;;;;;;5054196;28;20120;-75
2021/08/11 05:27:19;;;;;;;31.73;10.15;;;;;;;;;;5053997;28;20095;-74
2021/08/11 05:29:45;;;;;;;18.55;8.00;;;;;;;;;;5053980;28;20124;-75
2021/08/11 05:32:14;;;;;;;24.65;8.77;;;;;;;;;;5053049;28;20056;-76
2021/08/11 05:34:39;;;;;;;29.15;9.05;;;;;;;;;;5036041;28;20055;-75
2021/08/11 05:37:05;;;;;;;27.40;9.30;;;;;;;;;;5053259;28;20457;-75
2021/08/11 05:39:30;;;;;;;20.75;8.57;;;;;;;;;;5053668;28;20037;-75
2021/08/11 05:41:55;;;;;;;26.98;8.70;;;;;;;;;;5053900;28;20484;-75
2021/08/11 05:44:21;;;;;;;16.70;7.80;;;;;;;;;;5053635;28;20021;-75
2021/08/11 05:46:46;;;;;;;22.50;7.32;;;;;;;;;;5053119;28;20041;-75
2021/08/11 05:49:11;;;;;;;22.13;7.45;;;;;;;;;;5053501;28;20040;-75
2021/08/11 05:51:37;;;;;;;18.35;7.25;;;;;;;;;;5053538;28;20070;-75
2021/08/11 05:54:03;;;;;;;25.55;8.40;;;;;;;;;;5053316;28;20021;-75
2021/08/11 05:56:28;;;;;;;21.77;8.02;;;;;;;;;;5053417;28;20033;-75
2021/08/11 05:58:53;;;;;;;14.05;5.97;;;;;;;;;;5053160;28;20020;-76
2021/08/11 06:01:19;;;;;;;23.33;7.13;;;;;;;;;;5053032;28;20469;-75
2021/08/11 06:03:44;;;;;;;13.68;6.80;;;;;;;;;;5053367;28;20059;-75
2021/08/11 06:06:09;;;;;;;15.43;7.43;;;;;;;;;;5052921;28;20388;-75
2021/08/11 06:08:35;;;;;;;20.30;7.40;;;;;;;;;;5053283;28;20021;-75
2021/08/11 06:11:00;;;;;;;21.92;7.53;;;;;;;;;;5053534;28;20067;-76
2021/08/11 06:13:26;;;;;;;15.07;6.57;;;;;;;;;;5053372;28;20373;-75
2021/08/11 06:15:51;;;;;;;18.15;7.45;;;;;;;;;;5053168;28;20047;-75
2021/08/11 06:18:17;;;;;;;15.68;6.70;;;;;;;;;;5052770;28;20389;-75
2021/08/11 06:20:42;;;;;;;19.42;7.05;;;;;;;;;;5052943;28;20021;-75
2021/08/11 06:23:07;;;;;;;8.45;5.07;;;;;;;;;;5053020;28;20036;-76
2021/08/11 06:25:33;;;;;;;6.43;4.07;;;;;;;;;;5052878;28;22003;-76
2021/08/11 06:27:58;;;;;;;4.68;3.33;;;;;;;;;;5053091;28;20017;-76
2021/08/11 06:30:23;;;;;;;6.38;3.28;;;;;;;;;;5052753;28;20132;-76
2021/08/11 06:32:49;;;;;;;5.57;2.92;;;;;;;;;;5052823;28;20032;-75
2021/08/11 06:35:14;;;;;;;6.78;2.70;;;;;;;;;;5052829;28;20025;-76
2021/08/11 06:37:46;;;;;;;3.88;2.45;;;;;;;;;;5052904;28;20117;-75
2021/08/11 06:40:12;;;;;;;5.60;2.67;;;;;;;;;;5052674;28;20036;-76
2021/08/11 06:42:37;;;;;;;6.13;2.53;;;;;;;;;;5052886;28;20020;-76
2021/08/11 06:45:02;;;;;;;6.57;2.75;;;;;;;;;;5053139;28;20025;-76
2021/08/11 06:47:28;;;;;;;8.00;3.17;;;;;;;;;;5052426;28;20538;-75
2021/08/11 06:49:53;;;;;;;6.60;2.30;;;;;;;;;;5051823;28;20052;-76
2021/08/11 06:52:18;;;;;;;5.43;2.70;;;;;;;;;;5052472;28;20044;-75
2021/08/11 06:54:43;;;;;;;4.30;3.05;;;;;;;;;;5053084;28;20530;-75
2021/08/11 06:57:09;;;;;;;4.95;2.75;;;;;;;;;;5052955;28;20017;-74
2021/08/11 06:59:34;;;;;;;3.40;2.30;;;;;;;;;;5052639;28;20116;-76
2021/08/11 07:01:59;;;;;;;9.98;3.60;;;;;;;;;;5051983;28;20373;-76
2021/08/11 07:04:25;;;;;;;5.43;3.20;;;;;;;;;;5052457;28;20024;-75
2021/08/11 07:06:50;;;;;;;3.15;2.10;;;;;;;;;;5052650;28;20049;-73
2021/08/11 07:09:17;;;;;;;7.22;2.88;;;;;;;;;;5054213;28;20025;-75
2021/08/11 07:11:42;;;;;;;8.82;3.38;;;;;;;;;;5056780;28;20106;-74
2021/08/11 07:14:08;;;;;;;6.57;3.00;;;;;;;;;;5056519;28;20480;-74
2021/08/11 07:16:35;;;;;;;4.63;2.40;;;;;;;;;;5056312;28;20025;-74
2021/08/11 07:19:00;;;;;;;4.45;2.58;;;;;;;;;;5056265;28;20013;-74
2021/08/11 07:21:25;;;;;;;4.80;2.50;;;;;;;;;;5038467;28;20055;-74
2021/08/11 07:23:51;;;;;;;4.97;2.47;;;;;;;;;;5056336;28;20041;-76
2021/08/11 07:26:19;;;;;;;4.57;2.67;;;;;;;;;;5055935;28;20033;-76
2021/08/11 07:28:44;;;;;;;7.80;2.55;;;;;;;;;;5045768;28;20469;-77
2021/08/11 07:31:10;;;;;;;5.55;2.50;;;;;;;;;;5053449;28;20060;-78
2021/08/11 07:33:35;;;;;;;7.45;2.78;;;;;;;;;;5052668;28;20517;-77
2021/08/11 07:36:00;;;;;;;4.10;2.22;;;;;;;;;;5054972;28;20033;-77
2021/08/11 07:38:26;;;;;;;7.22;2.40;;;;;;;;;;5055609;28;20039;-76
2021/08/11 07:40:51;;;;;;;7.82;2.42;;;;;;;;;;5055449;28;20488;-76
2021/08/11 07:43:16;;;;;;;5.55;2.55;;;;;;;;;;5047823;28;20039;-76
2021/08/11 07:45:42;;;;;;;4.60;2.25;;;;;;;;;;5054901;28;20040;-76
2021/08/11 07:48:07;;;;;;;5.55;2.47;;;;;;;;;;5036626;28;20033;-76
2021/08/11 07:50:33;;;;;;;3.08;2.00;;;;;;;;;;5053939;28;20040;-77
2021/08/11 07:52:59;;;;;;;5.40;1.98;;;;;;;;;;5053317;28;20059;-77
2021/08/11 07:55:24;;;;;;;5.15;2.13;;;;;;;;;;5054362;28;20112;-76
2021/08/11 07:57:49;;;;;;;6.70;2.90;;;;;;;;;;5055048;28;20056;-76
2021/08/11 08:00:16;;;;;;;6.43;2.40;;;;;;;;;;5055011;28;20032;-76
2021/08/11 08:02:41;;;;;;;4.32;1.83;;;;;;;;;;5055292;28;20168;-76
2021/08/11 08:05:07;;;;;;;4.50;2.10;;;;;;;;;;5054406;28;20048;-75
2021/08/11 08:07:32;;;;;;;5.40;2.13;;;;;;;;;;5054831;28;20508;-77
2021/08/11 08:09:58;;;;;;;5.80;1.95;;;;;;;;;;5054725;28;20420;-76
2021/08/11 08:12:23;;;;;;;5.10;1.98;;;;;;;;;;5054944;28;20469;-76
2021/08/11 08:14:48;;;;;;;6.63;2.28;;;;;;;;;;5043305;28;20021;-77
2021/08/11 08:17:14;;;;;;;3.83;1.75;;;;;;;;;;5045353;28;20028;-76
2021/08/11 08:19:39;;;;;;;5.03;1.67;;;;;;;;;;5050267;28;20028;-77
2021/08/11 08:22:05;;;;;;;4.03;2.25;;;;;;;;;;5033551;28;20036;-76
2021/08/11 08:24:32;;;;;;;4.82;2.05;;;;;;;;;;5049970;28;20017;-75
2021/08/11 08:27:01;;;;;;;4.35;2.50;;;;;;;;;;5050233;28;20119;-77
2021/08/11 08:29:26;;;;;;;2.60;1.90;;;;;;;;;;5050805;28;20017;-76
2021/08/11 08:31:51;;;;;;;4.65;1.98;;;;;;;;;;5050644;28;20131;-77
2021/08/11 08:34:17;;;;;;;4.38;2.40;;;;;;;;;;5050827;28;20381;-76
2021/08/11 08:36:42;;;;;;;5.50;2.00;;;;;;;;;;5051403;28;20028;-76
2021/08/11 08:39:07;;;;;;;4.78;2.13;;;;;;;;;;5051150;28;20475;-77
2021/08/11 08:41:34;;;;;;;3.65;1.95;;;;;;;;;;5051552;28;20025;-78
2021/08/11 08:43:59;;;;;;;7.75;2.65;;;;;;;;;;5051249;28;20036;-78
2021/08/11 08:46:25;;;;;;;5.63;2.47;;;;;;;;;;5050231;28;20032;-76
2021/08/11 08:48:51;;;;;;;8.10;2.67;;;;;;;;;;5050593;28;20116;-76
2021/08/11 08:51:16;;;;;;;6.50;2.58;;;;;;;;;;5051066;28;20041;-76
2021/08/11 08:53:43;;;;;;;4.47;2.20;;;;;;;;;;5050985;28;20057;-76
2021/08/11 08:56:08;;;;;;;4.50;2.22;;;;;;;;;;5051059;28;20033;-77
2021/08/11 08:58:34;;;;;;;8.43;2.60;;;;;;;;;;5050768;28;20036;-76
2021/08/11 09:00:59;;;;;;;3.88;2.00;;;;;;;;;;5051151;28;20021;-76
2021/08/11 09:03:24;;;;;;;6.10;2.50;;;;;;;;;;5050454;28;20462;-75
2021/08/11 09:05:50;;;;;;;6.82;2.28;;;;;;;;;;5050595;28;20112;-76
2021/08/11 09:08:15;;;;;;;8.00;2.50;;;;;;;;;;5051183;28;20029;-78
2021/08/11 09:10:41;;;;;;;3.88;2.28;;;;;;;;;;5042176;28;20029;-76
2021/08/11 09:13:14;;;;;;;5.75;2.50;;;;;;;;;;5050515;28;20454;-76
2021/08/11 09:15:40;;;;;;;7.68;2.75;;;;;;;;;;5050795;28;20052;-76
2021/08/11 09:18:13;;;;;;;6.63;2.90;;;;;;;;;;5049601;28;20040;-77
2021/08/11 09:20:39;;;;;;;6.20;2.90;;;;;;;;;;5046298;28;20469;-76
2021/08/11 09:23:05;;;;;;;5.28;2.55;;;;;;;;;;5049492;28;20025;-76
2021/08/11 09:25:30;;;;;;;5.47;3.00;;;;;;;;;;5050507;28;20051;-75
2021/08/11 09:27:55;;;;;;;4.90;2.72;;;;;;;;;;5050286;28;20059;-79
2021/08/11 09:30:21;;;;;;;6.28;2.97;;;;;;;;;;5050984;28;20045;-75
2021/08/11 09:32:59;;;;;;;4.90;2.97;;;;;;;;;;5050816;28;20036;-76
2021/08/11 09:35:24;;;;;;;9.52;3.15;;;;;;;;;;5051565;28;20036;-76
2021/08/11 09:37:50;;;;;;;6.85;3.10;;;;;;;;;;5051328;28;20025;-76
2021/08/11 09:40:19;;;;;;;6.32;2.50;;;;;;;;;;5050965;28;20033;-76
2021/08/11 09:42:45;;;;;;;5.40;3.15;;;;;;;;;;5051065;28;20546;-76
2021/08/11 09:45:11;;;;;;;7.90;3.47;;;;;;;;;;5050931;28;20123;-75
2021/08/11 09:47:37;;;;;;;4.65;3.20;;;;;;;;;;5050449;28;20098;-76
2021/08/11 09:50:04;;;;;;;6.53;2.85;;;;;;;;;;5033016;28;20086;-76
2021/08/11 09:52:45;;;;;;;5.65;2.65;;;;;;;;;;5050853;28;20039;-76
2021/08/11 09:55:11;;;;;;;8.30;3.20;;;;;;;;;;5050594;28;20076;-76
2021/08/11 09:57:37;;;;;;;7.93;2.72;;;;;;;;;;5050805;28;20029;-76
2021/08/11 10:00:02;;;;;;;8.25;2.65;;;;;;;;;;5050345;28;20051;-75
2021/08/11 10:02:27;;;;;;;6.40;2.80;;;;;;;;;;5050619;28;20025;-75
2021/08/11 10:04:53;;;;;;;6.65;3.10;;;;;;;;;;5050196;28;20028;-75
2021/08/11 10:07:18;;;;;;;5.53;2.75;;;;;;;;;;5050506;28;20037;-75
2021/08/11 10:09:59;;;;;;;9.15;3.20;;;;;;;;;;5050665;28;20017;-75
2021/08/11 10:12:26;;;;;;;6.60;3.42;;;;;;;;;;5050492;28;20036;-76
2021/08/11 10:14:51;;;;;;;6.45;3.38;;;;;;;;;;5050421;28;20036;-76
2021/08/11 10:17:17;;;;;;;5.88;3.13;;;;;;;;;;5050310;28;20432;-75
2021/08/11 10:19:43;;;;;;;4.95;2.80;;;;;;;;;;5050660;28;20032;-75
2021/08/11 10:22:19;;;;;;;6.97;2.63;;;;;;;;;;5050282;28;20083;-76
2021/08/11 10:24:45;;;;;;;4.80;2.63;;;;;;;;;;5050483;28;20052;-76
2021/08/11 10:27:11;;;;;;;8.63;3.00;;;;;;;;;;5049752;28;20162;-77
2021/08/11 10:29:36;;;;;;;5.05;2.70;;;;;;;;;;5049626;28;20021;-76
2021/08/11 10:32:02;;;;;;;4.07;2.50;;;;;;;;;;5049992;28;20136;-76
2021/08/11 10:34:29;;;;;;;7.13;3.22;;;;;;;;;;5049913;28;20041;-77
2021/08/11 10:36:55;;;;;;;6.38;2.83;;;;;;;;;;5050271;28;20021;-77
2021/08/11 10:39:21;;;;;;;5.25;2.60;;;;;;;;;;5049341;28;20450;-76
2021/08/11 10:41:47;;;;;;;5.00;2.40;;;;;;;;;;5049679;28;20033;-75
2021/08/11 10:44:16;;;;;;;6.43;2.65;;;;;;;;;;5047800;28;20021;-78
2021/08/11 10:46:43;;;;;;;5.13;2.42;;;;;;;;;;5053118;28;20033;-77
2021/08/11 10:49:10;;;;;;;6.38;2.20;;;;;;;;;;5053613;28;20454;-76
2021/08/11 10:51:39;;;;;;;6.05;2.80;;;;;;;;;;5053707;28;20013;-76
2021/08/11 10:54:06;;;;;;;5.07;2.28;;;;;;;;;;5054117;28;20025;-78
2021/08/11 10:56:43;;;;;;;6.93;2.72;;;;;;;;;;5054306;28;20040;-76
2021/08/11 10:59:24;;;;;;;7.22;3.08;;;;;;;;;;5053502;28;20147;-77
2021/08/11 11:01:50;;;;;;;4.13;2.40;;;;;;;;;;5054205;28;20037;-76
2021/08/11 11:04:34;;;;;;;7.65;2.78;;;;;;;;;;5053633;28;20013;-76
2021/08/11 11:07:18;;;;;;;7.28;3.22;;;;;;;;;;5053458;28;20033;-77
2021/08/11 11:09:44;;;;;;;4.97;2.83;;;;;;;;;;5053417;28;20032;-78
2021/08/11 11:12:16;;;;;;;8.20;3.42;;;;;;;;;;5054157;28;20159;-76
2021/08/11 11:14:51;;;;;;;5.97;3.03;;;;;;;;;;5053909;28;20017;-76
2021/08/11 11:17:27;;;;;;;7.13;3.25;;;;;;;;;;5053062;28;20033;-78
2021/08/11 11:20:08;;;;;;;5.55;2.30;;;;;;;;;;5052963;28;20120;-76
2021/08/11 11:22:40;;;;;;;5.35;2.60;;;;;;;;;;5053398;28;20036;-76
2021/08/11 11:25:09;;;;;;;6.40;2.72;;;;;;;;;;5052887;28;20115;-77
2021/08/11 11:27:38;;;;;;;6.55;2.78;;;;;;;;;;5052727;28;20048;-76
2021/08/11 11:30:04;;;;;;;5.10;2.92;;;;;;;;;;5052240;28;20080;-76
2021/08/11 11:32:29;;;;;;;7.45;2.97;;;;;;;;;;5052961;28;20413;-77
2021/08/11 11:35:13;;;;;;;4.43;3.05;;;;;;;;;;5052949;28;20044;-78
2021/08/11 11:37:38;;;;;;;4.43;2.65;;;;;;;;;;5052264;28;20391;-78
2021/08/11 11:40:05;;;;;;;4.80;2.65;;;;;;;;;;5052795;28;20029;-78
2021/08/11 11:42:30;;;;;;;6.30;2.63;;;;;;;;;;5052444;28;20033;-76
2021/08/11 11:44:57;;;;;;;3.75;2.15;;;;;;;;;;5052634;28;20028;-77
2021/08/11 11:47:35;;;;;;;5.13;2.20;;;;;;;;;;5052425;28;20154;-76
2021/08/11 11:50:18;;;;;;;6.45;2.38;;;;;;;;;;5053059;28;20503;-76
2021/08/11 11:52:47;;;;;;;3.70;2.28;;;;;;;;;;5052986;28;20040;-76
2021/08/11 11:55:13;;;;;;;4.55;2.30;;;;;;;;;;5052535;28;20072;-76
2021/08/11 11:57:38;;;;;;;4.78;1.98;;;;;;;;;;5052832;28;20052;-76
2021/08/11 12:00:04;;;;;;;6.05;2.30;;;;;;;;;;5053226;28;20029;-76
2021/08/11 12:02:30;;;;;;;5.22;2.40;;;;;;;;;;5052765;28;20516;-76
2021/08/11 12:05:02;;;;;;;6.57;2.25;;;;;;;;;;5052665;28;20021;-76
2021/08/11 12:07:28;;;;;;;5.03;2.30;;;;;;;;;;5052564;28;20048;-76
2021/08/11 12:09:53;;;;;;;4.25;2.20;;;;;;;;;;5052427;28;20029;-76
2021/08/11 12:12:19;;;;;;;3.65;2.38;;;;;;;;;;5052147;28;20029;-77
2021/08/11 12:14:44;;;;;;;4.05;2.35;;;;;;;;;;5052528;28;20057;-77
2021/08/11 12:17:25;;;;;;;3.15;1.90;;;;;;;;;;5053054;28;20064;-76
2021/08/11 12:19:50;;;;;;;3.55;1.90;;;;;;;;;;5052254;28;20116;-76
2021/08/11 12:22:31;;;;;;;6.22;2.28;;;;;;;;;;5052904;28;20500;-76
2021/08/11 12:24:56;;;;;;;3.72;2.08;;;;;;;;;;5052322;28;20094;-76
2021/08/11 12:27:21;;;;;;;3.15;2.00;;;;;;;;;;5052258;28;20436;-76
2021/08/11 12:29:47;;;;;;;5.13;2.45;;;;;;;;;;5052396;28;20055;-76
2021/08/11 12:32:12;;;;;;;8.63;2.03;;;;;;;;;;5052082;28;20429;-76
2021/08/11 12:34:37;;;;;;;5.25;2.28;;;;;;;;;;5052279;28;20036;-75
2021/08/11 12:37:03;;;;;;;4.30;2.00;;;;;;;;;;5052111;28;20032;-76
2021/08/11 12:39:35;;;;;;;2.97;1.45;;;;;;;;;;5051841;28;20393;-76
2021/08/11 12:42:02;;;;;;;9.00;3.15;;;;;;;;;;5051973;28;20044;-76
2021/08/11 12:44:30;;;;;;;5.40;2.25;;;;;;;;;;5052517;28;20021;-76
2021/08/11 12:46:56;;;;;;;7.85;1.95;;;;;;;;;;5052199;28;20553;-76
2021/08/11 12:49:23;;;;;;;3.83;1.75;;;;;;;;;;5051612;28;20033;-77
2021/08/11 12:52:18;;;;;;;7.40;2.47;;;;;;;;;;5052025;28;20024;-76
2021/08/11 12:54:54;;;;;;;5.30;2.70;;;;;;;;;;5051263;28;20495;-76
2021/08/11 12:57:19;;;;;;;9.15;2.17;;;;;;;;;;5051506;28;20373;-78
2021/08/11 12:59:50;;;;;;;5.32;2.47;;;;;;;;;;5051512;28;20087;-76
2021/08/11 13:02:33;;;;;;;3.58;2.00;;;;;;;;;;5033782;28;20037;-76
2021/08/11 13:05:08;;;;;;;3.80;2.13;;;;;;;;;;5051283;28;20389;-77
2021/08/11 13:07:33;;;;;;;3.65;1.67;;;;;;;;;;5051005;28;20072;-76
2021/08/11 13:10:16;;;;;;;6.00;2.17;;;;;;;;;;5051063;28;20056;-76
2021/08/11 13:12:41;;;;;;;5.55;2.50;;;;;;;;;;5052062;28;20028;-76
2021/08/11 13:15:27;;;;;;;6.93;2.13;;;;;;;;;;5051823;28;20055;-75
2021/08/11 13:17:53;;;;;;;3.53;2.20;;;;;;;;;;5050414;28;20546;-76
2021/08/11 13:20:20;;;;;;;4.25;2.10;;;;;;;;;;5050925;28;20036;-76
2021/08/11 13:22:46;;;;;;;6.15;2.30;;;;;;;;;;5051702;28;20484;-76
2021/08/11 13:25:12;;;;;;;2.80;1.83;;;;;;;;;;5051744;28;20039;-77
2021/08/11 13:27:38;;;;;;;5.32;2.15;;;;;;;;;;5051191;28;20137;-76
2021/08/11 13:30:04;;;;;;;3.30;2.28;;;;;;;;;;5050572;28;20049;-76
2021/08/11 13:32:30;;;;;;;4.32;2.33;;;;;;;;;;5050895;28;20100;-76
2021/08/11 13:34:56;;;;;;;3.05;1.98;;;;;;;;;;5051096;28;20037;-76
2021/08/11 13:37:21;;;;;;;5.82;2.25;;;;;;;;;;5051505;28;20404;-77
2021/08/11 13:39:46;;;;;;;6.55;2.80;;;;;;;;;;5050647;28;20075;-76
2021/08/11 13:42:12;;;;;;;4.93;2.20;;;;;;;;;;5050806;28;20040;-76
2021/08/11 13:44:37;;;;;;;3.90;2.58;;;;;;;;;;5050686;28;20036;-76
2021/08/11 13:47:03;;;;;;;5.70;2.90;;;;;;;;;;5050726;28;20112;-76
2021/08/11 13:49:28;;;;;;;6.95;2.47;;;;;;;;;;5050893;28;20397;-76
2021/08/11 13:51:54;;;;;;;7.45;2.90;;;;;;;;;;5033525;28;20424;-76
2021/08/11 13:54:21;;;;;;;7.05;2.50;;;;;;;;;;5050400;28;20028;-76
2021/08/11 13:56:46;;;;;;;6.43;2.22;;;;;;;;;;5032805;28;20060;-75
2021/08/11 13:59:11;;;;;;;4.47;2.20;;;;;;;;;;5050679;28;20110;-76
2021/08/11 14:01:37;;;;;;;6.00;2.85;;;;;;;;;;5050135;28;20024;-76
2021/08/11 14:04:02;;;;;;;5.18;2.38;;;;;;;;;;5050269;28;20473;-76
2021/08/11 14:06:27;;;;;;;4.78;1.90;;;;;;;;;;5050024;28;20043;-76
2021/08/11 14:08:53;;;;;;;4.43;2.22;;;;;;;;;;5050146;28;20028;-76
2021/08/11 14:11:18;;;;;;;4.53;2.20;;;;;;;;;;5032122;28;20123;-76
2021/08/11 14:13:43;;;;;;;3.65;2.10;;;;;;;;;;5050372;28;20040;-76
2021/08/11 14:16:08;;;;;;;4.88;2.60;;;;;;;;;;5050783;28;20076;-76
2021/08/11 14:18:34;;;;;;;6.80;2.47;;;;;;;;;;5050357;28;20036;-76
2021/08/11 14:20:59;;;;;;;5.80;2.17;;;;;;;;;;5050364;28;20036;-76
2021/08/11 14:23:24;;;;;;;8.00;2.38;;;;;;;;;;5050154;28;20017;-76
2021/08/11 14:25:50;;;;;;;4.97;2.30;;;;;;;;;;5050071;28;20031;-76
2021/08/11 14:28:15;;;;;;;6.30;2.28;;;;;;;;;;5050686;28;20093;-75
2021/08/11 14:30:40;;;;;;;5.65;2.20;;;;;;;;;;5049550;28;20061;-76
2021/08/11 14:33:05;;;;;;;5.03;2.40;;;;;;;;;;5050146;28;20385;-76